Time;durP1;ratioP1;P1;durP2;ratioP2;P2;SDS_P1;SDS_P2;PMS_P1;PMS_P2;Temp;Humidity;BMP_temperature;BMP_pressure;BME280_temperature;BME280_humidity;BME280_pressure;Samples;Min_cycle;Max_cycle;Signal;HPM_P1;HPM_P2
2024/01/09 00:00:06;;;;;;;63.43;32.97;;;-4.20;38.20;;;;;;5010875;28;20248;-86
2024/01/09 00:02:32;;;;;;;65.97;31.17;;;-4.20;38.30;;;;;;5010044;28;20190;-86
2024/01/09 00:04:57;;;;;;;60.33;31.37;;;-4.10;38.40;;;;;;4993650;28;20213;-86
2024/01/09 00:07:23;;;;;;;52.87;29.43;;;-4.20;38.90;;;;;;5010710;28;20254;-84
2024/01/09 00:09:49;;;;;;;63.10;30.47;;;-4.20;38.40;;;;;;4993700;28;20194;-85
2024/01/09 00:12:14;;;;;;;52.97;29.37;;;-4.20;38.30;;;;;;4995883;28;20317;-84
2024/01/09 00:14:40;;;;;;;60.27;29.03;;;-4.10;38.40;;;;;;4993427;28;20543;-86
2024/01/09 00:17:05;;;;;;;75.57;33.70;;;-4.20;38.40;;;;;;4994757;28;20191;-86
2024/01/09 00:19:33;;;;;;;75.00;34.80;;;-4.10;38.70;;;;;;4993819;28;20188;-84
2024/01/09 00:22:01;;;;;;;71.07;34.43;;;-4.00;38.70;;;;;;4993026;28;20201;-84
2024/01/09 00:24:26;;;;;;;64.10;33.27;;;-4.00;38.70;;;;;;5001944;28;20210;-84
2024/01/09 00:26:52;;;;;;;74.30;35.10;;;-4.00;38.60;;;;;;5010308;28;20194;-86
2024/01/09 00:29:17;;;;;;;71.47;34.67;;;-4.00;38.60;;;;;;4993514;28;20185;-86
2024/01/09 00:31:44;;;;;;;72.47;34.53;;;-3.90;38.80;;;;;;5013130;28;20198;-86
2024/01/09 00:34:09;;;;;;;65.93;32.03;;;-3.90;38.50;;;;;;4992770;28;20555;-85
2024/01/09 00:36:44;;;;;;;64.20;33.20;;;-3.90;38.40;;;;;;5017988;28;20189;-88
2024/01/09 00:39:11;;;;;;;65.13;32.70;;;-3.90;38.40;;;;;;4986534;28;20520;-86
2024/01/09 00:41:36;;;;;;;70.23;33.10;;;-4.00;38.30;;;;;;4997665;28;20195;-86
2024/01/09 00:44:02;;;;;;;71.10;34.27;;;-4.00;38.20;;;;;;4995882;28;20296;-86
2024/01/09 00:46:28;;;;;;;67.73;34.13;;;-4.00;38.40;;;;;;4987075;28;20186;-86
2024/01/09 00:48:54;;;;;;;68.57;34.33;;;-4.10;38.30;;;;;;4990881;28;20273;-86
2024/01/09 00:51:19;;;;;;;72.70;34.27;;;-4.10;38.20;;;;;;4991436;28;20180;-86
2024/01/09 00:53:45;;;;;;;72.67;34.03;;;-4.10;38.20;;;;;;4992418;28;20187;-87
2024/01/09 00:56:11;;;;;;;66.20;33.53;;;-4.10;38.40;;;;;;4985964;28;20183;-85
2024/01/09 00:58:36;;;;;;;66.60;33.70;;;-4.10;38.40;;;;;;4992836;28;20242;-85
2024/01/09 01:01:03;;;;;;;72.23;35.57;;;-4.10;38.30;;;;;;5009240;28;20179;-85
2024/01/09 01:03:29;;;;;;;69.17;33.60;;;-4.10;38.30;;;;;;4993645;28;20193;-86
2024/01/09 01:05:55;;;;;;;70.07;34.77;;;-4.20;38.20;;;;;;4991404;28;20278;-84
2024/01/09 01:08:21;;;;;;;69.17;35.27;;;-4.10;38.40;;;;;;4993306;28;20683;-86
2024/01/09 01:10:47;;;;;;;73.73;33.73;;;-4.20;38.30;;;;;;5008062;28;20671;-84
2024/01/09 01:13:13;;;;;;;65.60;34.00;;;-4.20;38.30;;;;;;5010631;28;20671;-84
2024/01/09 01:15:38;;;;;;;68.33;35.80;;;-4.20;38.20;;;;;;4993271;28;20190;-87
2024/01/09 01:18:04;;;;;;;75.13;35.77;;;-4.20;38.20;;;;;;4991622;28;20196;-87
2024/01/09 01:20:30;;;;;;;73.57;36.63;;;-4.30;38.30;;;;;;4990288;28;20184;-86
2024/01/09 01:22:55;;;;;;;75.87;36.57;;;-4.30;38.30;;;;;;4992466;28;20239;-86
2024/01/09 01:25:21;;;;;;;86.87;39.67;;;-4.30;38.30;;;;;;4992431;28;20206;-85
2024/01/09 01:27:47;;;;;;;82.07;39.03;;;-4.30;38.50;;;;;;5020134;28;20182;-87
2024/01/09 01:30:12;;;;;;;81.80;39.27;;;-4.20;39.10;;;;;;5018270;28;20329;-84
2024/01/09 01:32:38;;;;;;;83.10;39.80;;;-4.20;38.40;;;;;;4995324;28;20183;-85
2024/01/09 01:35:04;;;;;;;85.50;41.40;;;-4.20;38.40;;;;;;4991044;28;20194;-86
2024/01/09 01:37:30;;;;;;;94.17;46.30;;;-4.20;38.40;;;;;;5009617;28;20187;-86
2024/01/09 01:39:56;;;;;;;105.10;51.07;;;-4.30;38.30;;;;;;4991224;28;20183;-86
2024/01/09 01:42:21;;;;;;;90.80;42.27;;;-4.30;38.30;;;;;;5009181;28;20190;-87
2024/01/09 01:44:47;;;;;;;87.67;43.53;;;-4.30;38.40;;;;;;4991529;28;20248;-85
2024/01/09 01:47:14;;;;;;;86.23;41.87;;;-4.40;38.20;;;;;;4991358;28;20190;-86
2024/01/09 01:49:40;;;;;;;90.07;42.70;;;-4.30;38.40;;;;;;4992426;28;20429;-86
2024/01/09 01:52:07;;;;;;;82.10;40.43;;;-4.30;38.50;;;;;;4990908;28;20183;-88
2024/01/09 01:54:35;;;;;;;90.13;41.47;;;-4.30;38.40;;;;;;4992883;28;20560;-85
2024/01/09 01:57:02;;;;;;;80.20;38.97;;;-4.30;39.00;;;;;;5002601;28;20744;-84
2024/01/09 01:59:30;;;;;;;77.73;39.60;;;-4.30;38.40;;;;;;5006166;28;20175;-86
2024/01/09 02:01:56;;;;;;;81.23;40.43;;;-4.30;38.60;;;;;;5012210;28;20269;-87
2024/01/09 02:04:22;;;;;;;85.27;39.53;;;-4.20;38.70;;;;;;5022743;28;20226;-87
2024/01/09 02:06:47;;;;;;;81.50;39.17;;;-4.20;38.50;;;;;;5020823;28;20203;-86
2024/01/09 02:09:15;;;;;;;84.47;39.50;;;-4.20;38.50;;;;;;5015206;28;20208;-88
2024/01/09 02:11:41;;;;;;;86.37;39.30;;;-4.20;38.70;;;;;;4994141;28;20210;-88
2024/01/09 02:14:06;;;;;;;82.87;39.10;;;-4.20;38.50;;;;;;5008963;28;20214;-86
2024/01/09 02:16:32;;;;;;;74.77;37.33;;;-4.20;38.40;;;;;;4994687;28;20207;-86
2024/01/09 02:18:58;;;;;;;75.93;38.33;;;-4.20;38.40;;;;;;4991009;28;20179;-86
2024/01/09 02:21:23;;;;;;;83.37;40.20;;;-4.20;38.40;;;;;;5007634;28;20189;-88
2024/01/09 02:23:49;;;;;;;78.60;39.20;;;-4.30;38.20;;;;;;4999418;28;20240;-87
2024/01/09 02:26:20;;;;;;;78.90;38.63;;;-4.30;38.20;;;;;;5003126;28;20199;-88
2024/01/09 02:28:49;;;;;;;77.67;37.07;;;-4.30;38.30;;;;;;4990482;28;20667;-88
2024/01/09 02:31:15;;;;;;;79.97;37.20;;;-4.30;38.30;;;;;;4994655;28;20192;-86
2024/01/09 02:33:42;;;;;;;78.13;38.27;;;-4.40;38.20;;;;;;4994165;28;20180;-88
2024/01/09 02:36:08;;;;;;;74.60;37.77;;;-4.40;38.20;;;;;;5011636;28;20278;-88
2024/01/09 02:38:34;;;;;;;84.07;40.87;;;-4.40;38.20;;;;;;5004388;28;20645;-88
2024/01/09 02:41:00;;;;;;;80.47;39.37;;;-4.50;38.20;;;;;;5014769;28;20257;-88
2024/01/09 02:43:25;;;;;;;90.57;42.43;;;-4.50;38.30;;;;;;4990347;28;20647;-86
2024/01/09 02:45:51;;;;;;;91.40;42.27;;;-4.40;38.60;;;;;;4993325;28;20238;-87
2024/01/09 02:48:16;;;;;;;88.13;41.87;;;-4.30;38.80;;;;;;5012671;28;20190;-86
2024/01/09 02:50:42;;;;;;;88.83;41.03;;;-4.30;38.70;;;;;;5015718;28;20179;-87
2024/01/09 02:53:07;;;;;;;82.73;40.83;;;-4.30;38.70;;;;;;4995619;28;20182;-87
2024/01/09 02:55:33;;;;;;;89.00;40.60;;;-4.30;38.70;;;;;;4997882;28;20187;-87
2024/01/09 02:57:59;;;;;;;84.83;38.60;;;-4.20;38.70;;;;;;5011065;28;20260;-86
2024/01/09 03:00:24;;;;;;;81.10;39.97;;;-4.20;38.60;;;;;;5002277;28;20189;-85
2024/01/09 03:02:50;;;;;;;87.40;43.27;;;-4.20;38.60;;;;;;5014206;28;20191;-85
2024/01/09 03:05:15;;;;;;;93.17;44.20;;;-4.10;38.60;;;;;;5017025;28;20209;-87
2024/01/09 03:07:41;;;;;;;86.53;41.27;;;-4.20;38.50;;;;;;5013713;28;20563;-87
2024/01/09 03:10:08;;;;;;;85.30;40.03;;;-4.20;38.60;;;;;;4998646;28;20190;-86
2024/01/09 03:12:33;;;;;;;89.87;42.30;;;-4.10;38.80;;;;;;4998611;28;20213;-86
2024/01/09 03:14:59;;;;;;;88.30;40.40;;;-4.10;38.60;;;;;;4996431;28;20729;-86
2024/01/09 03:17:24;;;;;;;83.20;40.50;;;-4.20;38.40;;;;;;4998755;28;20211;-86
2024/01/09 03:19:50;;;;;;;86.23;40.63;;;-4.20;38.40;;;;;;5023944;28;20231;-86
2024/01/09 03:22:16;;;;;;;87.73;40.70;;;-4.20;38.50;;;;;;4993496;28;20773;-85
2024/01/09 03:24:41;;;;;;;85.83;41.53;;;-4.20;38.50;;;;;;4994803;28;20284;-85
2024/01/09 03:27:07;;;;;;;88.27;42.63;;;-4.20;38.60;;;;;;4995673;28;20206;-86
2024/01/09 03:29:33;;;;;;;89.50;39.37;;;-4.20;38.60;;;;;;5003026;28;20174;-85
2024/01/09 03:31:59;;;;;;;90.40;38.23;;;-4.10;38.60;;;;;;5006436;28;20252;-87
2024/01/09 03:34:25;;;;;;;79.87;39.33;;;-4.10;38.50;;;;;;5010137;28;20210;-88
2024/01/09 03:36:50;;;;;;;71.63;37.13;;;-4.10;38.50;;;;;;5002683;28;20271;-86
2024/01/09 03:39:16;;;;;;;74.50;37.63;;;-4.20;38.40;;;;;;5012616;28;20245;-87
2024/01/09 03:41:42;;;;;;;74.43;36.53;;;-4.20;38.50;;;;;;4996370;28;20187;-83
2024/01/09 03:44:09;;;;;;;75.63;38.23;;;-4.10;38.60;;;;;;4999744;28;20242;-84
2024/01/09 03:46:34;;;;;;;68.73;35.23;;;-4.10;38.60;;;;;;5007809;28;20186;-86
2024/01/09 03:49:00;;;;;;;74.00;37.23;;;-4.10;38.50;;;;;;5011564;28;20250;-86
2024/01/09 03:51:26;;;;;;;67.13;35.50;;;-4.10;38.50;;;;;;4986085;28;20184;-87
2024/01/09 03:53:52;;;;;;;74.70;38.20;;;-4.00;38.70;;;;;;4988442;28;20180;-86
2024/01/09 03:56:18;;;;;;;78.23;37.97;;;-4.10;38.70;;;;;;4996076;28;20206;-86
2024/01/09 03:58:44;;;;;;;80.47;39.87;;;-4.10;38.60;;;;;;4995363;28;20444;-87
2024/01/09 04:01:10;;;;;;;80.67;38.73;;;-4.10;38.50;;;;;;5004901;28;20197;-85
2024/01/09 04:03:36;;;;;;;75.20;36.03;;;-4.10;38.50;;;;;;5008266;28;20186;-87
2024/01/09 04:06:02;;;;;;;75.80;37.60;;;-4.10;38.50;;;;;;5011364;28;20191;-87
2024/01/09 04:08:28;;;;;;;69.70;37.30;;;-4.00;38.60;;;;;;4993472;28;20233;-85
2024/01/09 04:10:54;;;;;;;75.03;37.90;;;-4.10;38.40;;;;;;5010503;28;20198;-86
2024/01/09 04:13:20;;;;;;;76.33;36.73;;;-4.10;38.40;;;;;;5009191;28;20210;-86
2024/01/09 04:15:46;;;;;;;76.90;38.43;;;-4.10;38.60;;;;;;4998204;28;20202;-86
2024/01/09 04:18:12;;;;;;;79.03;37.67;;;-4.10;38.50;;;;;;4996786;28;20179;-85
2024/01/09 04:20:39;;;;;;;71.30;36.57;;;-4.10;38.50;;;;;;4999157;28;20194;-86
2024/01/09 04:23:04;;;;;;;79.87;39.23;;;-4.10;38.50;;;;;;5006181;28;20231;-85
2024/01/09 04:25:30;;;;;;;76.67;38.23;;;-4.10;38.40;;;;;;5010375;28;20700;-85
2024/01/09 04:27:56;;;;;;;77.77;38.50;;;-4.20;38.40;;;;;;4992721;28;20194;-87
2024/01/09 04:30:21;;;;;;;72.10;38.63;;;-4.20;38.40;;;;;;4994454;28;20190;-87
2024/01/09 04:32:47;;;;;;;86.10;39.17;;;-4.20;38.90;;;;;;4993833;28;20228;-85
2024/01/09 04:35:13;;;;;;;73.37;34.90;;;-4.20;38.60;;;;;;5014012;28;20196;-85
2024/01/09 04:37:38;;;;;;;71.20;35.37;;;-4.10;38.80;;;;;;5009081;28;20221;-86
2024/01/09 04:40:05;;;;;;;76.80;37.67;;;-4.00;38.70;;;;;;5006344;28;20198;-86
2024/01/09 04:42:31;;;;;;;67.90;35.73;;;-4.00;38.40;;;;;;5000918;28;20194;-85
2024/01/09 04:44:57;;;;;;;75.73;36.87;;;-4.10;38.30;;;;;;4992554;28;20318;-87
2024/01/09 04:47:22;;;;;;;68.73;35.70;;;-4.10;38.40;;;;;;4995573;28;20547;-86
2024/01/09 04:49:48;;;;;;;74.33;36.93;;;-4.20;38.40;;;;;;5019769;28;20198;-87
2024/01/09 04:52:14;;;;;;;74.57;36.10;;;-4.20;38.50;;;;;;4998679;28;20375;-86
2024/01/09 04:54:40;;;;;;;80.77;40.57;;;-4.10;38.80;;;;;;4993917;28;20276;-85
2024/01/09 04:57:05;;;;;;;90.40;45.00;;;-4.10;38.80;;;;;;4993673;28;20195;-84
2024/01/09 04:59:31;;;;;;;91.93;46.77;;;-4.00;38.90;;;;;;4990303;28;20241;-86
2024/01/09 05:01:59;;;;;;;102.60;48.47;;;-3.90;38.80;;;;;;5012587;28;20202;-86
2024/01/09 05:04:24;;;;;;;103.67;50.17;;;-3.90;38.60;;;;;;4990016;28;20682;-86
2024/01/09 05:06:50;;;;;;;109.00;50.33;;;-3.90;38.50;;;;;;4987057;28;20242;-85
2024/01/09 05:09:16;;;;;;;111.23;51.13;;;-3.90;38.60;;;;;;4992446;28;20189;-86
2024/01/09 05:11:41;;;;;;;115.83;54.00;;;-3.90;38.60;;;;;;4995386;28;20183;-86
2024/01/09 05:14:07;;;;;;;114.93;53.83;;;-3.90;38.50;;;;;;4987420;28;20276;-85
2024/01/09 05:16:32;;;;;;;115.97;53.23;;;-4.00;38.30;;;;;;5007106;28;20194;-85
2024/01/09 05:18:58;;;;;;;115.30;53.27;;;-4.00;38.30;;;;;;5009194;28;20187;-87
2024/01/09 05:21:23;;;;;;;118.27;53.63;;;-4.00;38.20;;;;;;4994644;28;20192;-85
2024/01/09 05:23:49;;;;;;;124.17;55.47;;;-4.00;38.30;;;;;;4994857;28;20182;-85
2024/01/09 05:26:15;;;;;;;116.33;54.80;;;-3.90;38.50;;;;;;4996569;28;20194;-88
2024/01/09 05:28:40;;;;;;;121.43;53.50;;;-3.90;38.40;;;;;;5012138;28;20355;-90
2024/01/09 05:31:06;;;;;;;122.27;54.27;;;-3.80;38.30;;;;;;4997289;28;20179;-90
2024/01/09 05:33:32;;;;;;;113.00;52.07;;;-3.80;38.20;;;;;;4994598;28;20174;-90
2024/01/09 05:35:58;;;;;;;114.17;51.03;;;-3.90;37.90;;;;;;5010239;28;20198;-90
2024/01/09 05:38:23;;;;;;;106.53;52.63;;;-4.10;37.60;;;;;;5009939;28;20185;-89
2024/01/09 05:40:51;;;;;;;117.60;52.30;;;-4.20;37.70;;;;;;4994720;28;20205;-89
2024/01/09 05:43:17;;;;;;;110.10;51.90;;;-4.30;37.80;;;;;;4996678;28;20187;-92
2024/01/09 05:45:42;;;;;;;111.27;51.63;;;-4.30;37.90;;;;;;4994551;28;20234;-91
2024/01/09 05:48:08;;;;;;;106.73;51.70;;;-4.40;38.00;;;;;;5004152;28;20274;-91
2024/01/09 05:50:34;;;;;;;109.87;49.60;;;-4.40;38.10;;;;;;4993004;28;20189;-90
2024/01/09 05:53:01;;;;;;;108.10;48.93;;;-4.40;38.20;;;;;;4982199;28;20205;-90
2024/01/09 05:55:27;;;;;;;110.80;50.43;;;-4.30;38.30;;;;;;5003501;28;20269;-90
2024/01/09 05:57:52;;;;;;;101.00;48.33;;;-4.40;38.20;;;;;;4994692;28;20191;-90
2024/01/09 06:00:18;;;;;;;106.33;49.00;;;-4.40;38.40;;;;;;4997892;28;20183;-90
2024/01/09 06:02:44;;;;;;;98.53;50.27;;;-4.30;38.60;;;;;;5000392;28;20190;-90
2024/01/09 06:05:10;;;;;;;109.53;50.37;;;-4.30;38.60;;;;;;5011121;28;20262;-90
2024/01/09 06:07:35;;;;;;;103.37;48.17;;;-4.40;38.30;;;;;;4998467;28;20175;-90
2024/01/09 06:10:01;;;;;;;102.43;49.23;;;-4.40;38.30;;;;;;4998839;28;20632;-91
2024/01/09 06:12:27;;;;;;;112.73;50.37;;;-4.50;38.20;;;;;;5004431;28;20178;-89
2024/01/09 06:14:52;;;;;;;105.90;50.13;;;-4.50;38.20;;;;;;5015723;28;20198;-91
2024/01/09 06:17:18;;;;;;;112.20;51.20;;;-4.50;38.20;;;;;;4997154;28;20187;-91
2024/01/09 06:19:44;;;;;;;107.57;52.40;;;-4.50;38.20;;;;;;5005369;28;20578;-90
2024/01/09 06:22:23;;;;;;;104.70;50.07;;;-4.60;38.20;;;;;;5019554;28;20186;-91
2024/01/09 06:24:48;;;;;;;107.30;50.10;;;-4.60;38.20;;;;;;4996697;28;20689;-92
2024/01/09 06:27:14;;;;;;;106.33;49.40;;;-4.60;38.20;;;;;;5010352;28;20186;-91
2024/01/09 06:29:40;;;;;;;106.97;49.03;;;-4.50;38.60;;;;;;5002504;28;20193;-92
2024/01/09 06:32:06;;;;;;;108.37;50.63;;;-4.50;38.60;;;;;;4997919;28;20192;-92
2024/01/09 06:34:34;;;;;;;105.83;49.53;;;-4.50;38.30;;;;;;5001158;28;20194;-91
2024/01/09 06:36:59;;;;;;;104.53;48.73;;;-4.50;38.30;;;;;;5000275;28;20193;-92
2024/01/09 06:39:25;;;;;;;98.23;47.60;;;-4.60;38.30;;;;;;5017243;28;20177;-90
2024/01/09 06:41:50;;;;;;;111.13;49.60;;;-4.60;38.30;;;;;;4994245;28;20212;-91
2024/01/09 06:44:16;;;;;;;109.63;49.27;;;-4.60;38.40;;;;;;5013212;28;20238;-91
2024/01/09 06:46:41;;;;;;;106.67;47.73;;;-4.50;39.00;;;;;;4997967;28;20673;-91
2024/01/09 06:49:07;;;;;;;101.53;48.80;;;-4.50;38.50;;;;;;4998155;28;20240;-91
2024/01/09 06:51:33;;;;;;;119.13;57.70;;;-4.50;38.70;;;;;;4997222;28;20658;-91
2024/01/09 06:53:58;;;;;;;131.57;61.77;;;-4.40;38.90;;;;;;4992323;28;20277;-91
2024/01/09 06:56:24;;;;;;;127.57;58.27;;;-4.30;38.70;;;;;;4996727;28;20187;-91
2024/01/09 06:58:49;;;;;;;121.43;55.43;;;-4.40;38.40;;;;;;4998956;28;20217;-91
2024/01/09 07:01:15;;;;;;;115.90;54.83;;;-4.40;38.40;;;;;;5008562;28;20185;-91
2024/01/09 07:03:41;;;;;;;116.77;57.37;;;-4.40;38.60;;;;;;5006941;28;20189;-91
2024/01/09 07:06:06;;;;;;;117.27;56.13;;;-4.30;38.80;;;;;;5017450;28;20214;-91
2024/01/09 07:08:32;;;;;;;121.87;56.37;;;-4.30;38.70;;;;;;5010916;28;20185;-91
2024/01/09 07:10:58;;;;;;;119.40;54.50;;;-4.30;38.60;;;;;;4993028;28;20647;-91
2024/01/09 07:13:24;;;;;;;116.97;55.63;;;-4.30;38.60;;;;;;5014366;28;20284;-91
2024/01/09 07:15:49;;;;;;;121.90;57.70;;;-4.30;38.60;;;;;;4991261;28;20190;-91
2024/01/09 07:18:15;;;;;;;132.67;59.47;;;-4.30;38.60;;;;;;5011969;28;20661;-91
2024/01/09 07:20:42;;;;;;;127.03;59.07;;;-4.30;38.70;;;;;;4997953;28;20193;-91
2024/01/09 07:23:08;;;;;;;126.00;56.10;;;-4.20;39.00;;;;;;4994444;28;20543;-91
2024/01/09 07:25:33;;;;;;;116.87;56.30;;;-4.10;39.10;;;;;;4993199;28;20194;-88
2024/01/09 07:27:59;;;;;;;124.73;56.47;;;-4.10;38.80;;;;;;5005585;28;20632;-90
2024/01/09 07:30:25;;;;;;;118.33;57.33;;;-4.10;38.80;;;;;;4997339;28;20178;-91
2024/01/09 07:32:50;;;;;;;116.37;56.97;;;-4.10;38.90;;;;;;4988942;28;20646;-90
2024/01/09 07:35:16;;;;;;;118.00;56.30;;;-4.00;39.00;;;;;;4993043;28;20559;-91
2024/01/09 07:37:42;;;;;;;110.20;52.87;;;-4.00;39.00;;;;;;5006727;28;20183;-90
2024/01/09 07:40:09;;;;;;;114.27;52.73;;;-4.00;39.00;;;;;;4997014;28;20185;-91
2024/01/09 07:42:35;;;;;;;111.73;52.03;;;-3.90;39.20;;;;;;5002173;28;21191;-89
2024/01/09 07:45:01;;;;;;;117.60;53.37;;;-3.90;39.10;;;;;;4995974;28;20225;-91
2024/01/09 07:47:26;;;;;;;108.87;52.17;;;-3.80;39.10;;;;;;4987037;28;20207;-91
2024/01/09 07:49:52;;;;;;;110.57;55.03;;;-3.80;39.10;;;;;;4996027;28;20178;-90
2024/01/09 07:52:19;;;;;;;103.27;50.20;;;-3.80;39.20;;;;;;5022638;28;20689;-90
2024/01/09 07:54:44;;;;;;;98.87;48.90;;;-3.70;39.20;;;;;;4995885;28;20651;-90
2024/01/09 07:57:10;;;;;;;108.67;51.50;;;-3.70;39.10;;;;;;4996860;28;20194;-90
2024/01/09 07:59:35;;;;;;;111.03;52.97;;;-3.70;39.10;;;;;;4996909;28;20604;-91
2024/01/09 08:02:01;;;;;;;110.50;52.63;;;-3.60;39.10;;;;;;4993696;28;20277;-90
2024/01/09 08:04:27;;;;;;;111.07;55.27;;;-3.60;39.00;;;;;;4991651;28;20213;-90
2024/01/09 08:06:54;;;;;;;116.57;54.93;;;-3.50;39.10;;;;;;4987500;28;20210;-90
2024/01/09 08:09:20;;;;;;;115.50;55.20;;;-3.50;38.90;;;;;;5007773;28;20687;-90
2024/01/09 08:11:46;;;;;;;120.43;56.20;;;-3.50;38.80;;;;;;4989874;28;20206;-90
2024/01/09 08:14:13;;;;;;;126.87;60.27;;;-3.50;38.90;;;;;;5001838;28;20182;-90
2024/01/09 08:16:40;;;;;;;142.87;70.70;;;-3.50;39.00;;;;;;4995302;28;20289;-91
2024/01/09 08:19:09;;;;;;;123.77;61.07;;;-3.50;39.00;;;;;;5002571;28;20190;-90
2024/01/09 08:21:35;;;;;;;121.70;56.23;;;-3.50;39.00;;;;;;4994019;28;20183;-91
2024/01/09 08:24:01;;;;;;;117.27;54.70;;;-3.50;38.90;;;;;;4996471;28;20182;-90
2024/01/09 08:26:27;;;;;;;104.43;52.17;;;-3.40;39.00;;;;;;4992332;28;20175;-90
2024/01/09 08:28:52;;;;;;;111.67;53.20;;;-3.40;39.00;;;;;;5002414;28;20543;-91
2024/01/09 08:31:18;;;;;;;114.57;54.07;;;-3.40;39.00;;;;;;4996258;28;20191;-90
2024/01/09 08:33:44;;;;;;;106.77;53.40;;;-3.30;39.20;;;;;;5003972;28;20265;-90
2024/01/09 08:36:09;;;;;;;100.03;51.30;;;-3.20;39.20;;;;;;5015093;28;20202;-90
2024/01/09 08:38:35;;;;;;;99.20;48.63;;;-3.20;39.90;;;;;;4995979;28;20175;-90
2024/01/09 08:41:02;;;;;;;102.20;49.43;;;-3.10;39.20;;;;;;4999814;28;20190;-90
2024/01/09 08:43:28;;;;;;;91.67;45.70;;;-3.00;39.20;;;;;;5011692;28;20183;-90
2024/01/09 08:45:54;;;;;;;102.33;50.67;;;-3.10;39.00;;;;;;4981298;28;20592;-90
2024/01/09 08:48:19;;;;;;;97.47;47.07;;;-3.10;38.90;;;;;;4989393;28;20188;-91
2024/01/09 08:50:45;;;;;;;100.47;49.03;;;-3.20;38.80;;;;;;4975843;28;20560;-90
2024/01/09 08:53:11;;;;;;;92.40;44.70;;;-3.20;38.80;;;;;;4971883;28;20176;-90
2024/01/09 08:55:37;;;;;;;87.63;43.63;;;-3.10;39.10;;;;;;4983993;28;20190;-91
2024/01/09 08:58:02;;;;;;;90.40;41.47;;;-3.10;39.10;;;;;;4967228;28;20218;-90
2024/01/09 09:00:28;;;;;;;84.97;42.63;;;-3.10;39.20;;;;;;4991344;28;20206;-90
2024/01/09 09:02:53;;;;;;;75.43;37.93;;;-3.00;39.20;;;;;;4993764;28;20199;-90
2024/01/09 09:05:19;;;;;;;78.53;37.03;;;-3.00;38.90;;;;;;4990490;28;20207;-90
2024/01/09 09:07:45;;;;;;;71.83;36.40;;;-3.20;38.20;;;;;;4993146;28;20719;-90
2024/01/09 09:10:10;;;;;;;76.83;37.03;;;-3.40;37.90;;;;;;4992943;28;20229;-90
2024/01/09 09:12:36;;;;;;;74.10;37.10;;;-3.50;38.30;;;;;;4992686;28;20199;-91
2024/01/09 09:15:04;;;;;;;80.13;40.50;;;-3.40;38.80;;;;;;4980659;28;20211;-90
2024/01/09 09:17:33;;;;;;;80.20;40.17;;;-3.30;39.00;;;;;;4971823;28;20176;-90
2024/01/09 09:19:58;;;;;;;78.23;40.63;;;-3.30;38.90;;;;;;4982695;28;20271;-91
2024/01/09 09:22:37;;;;;;;78.93;40.27;;;-3.40;38.80;;;;;;4974827;28;20227;-90
2024/01/09 09:25:02;;;;;;;78.43;39.63;;;-3.30;38.90;;;;;;4975933;28;20272;-91
2024/01/09 09:27:28;;;;;;;77.70;38.37;;;-3.30;39.00;;;;;;4992295;28;20211;-90
2024/01/09 09:29:53;;;;;;;77.87;40.23;;;-3.20;39.30;;;;;;4988872;28;20196;-90
2024/01/09 09:32:19;;;;;;;104.80;45.57;;;-3.10;39.30;;;;;;4990351;28;21038;-90
2024/01/09 09:34:45;;;;;;;101.13;47.00;;;-3.10;39.30;;;;;;4992229;28;20184;-89
2024/01/09 09:37:12;;;;;;;84.17;42.03;;;-3.00;39.40;;;;;;4998924;28;20878;-88
2024/01/09 09:39:38;;;;;;;81.43;40.10;;;-2.90;39.40;;;;;;4980653;28;20278;-89
2024/01/09 09:42:03;;;;;;;80.90;38.27;;;-2.80;39.30;;;;;;4977459;28;20659;-89
2024/01/09 09:44:29;;;;;;;78.10;38.47;;;-2.70;39.20;;;;;;5003238;28;20322;-89
2024/01/09 09:46:58;;;;;;;76.00;38.17;;;-2.60;39.20;;;;;;5016574;28;20673;-89
2024/01/09 09:49:24;;;;;;;79.33;41.10;;;-2.60;39.20;;;;;;4999624;28;20211;-90
2024/01/09 09:52:27;;;;;;;81.77;39.73;;;-2.50;39.20;;;;;;5005787;28;20218;-89
2024/01/09 09:54:54;;;;;;;77.27;40.70;;;-2.40;39.20;;;;;;4999773;28;20182;-89
2024/01/09 09:57:20;;;;;;;73.53;38.27;;;-2.30;39.30;;;;;;4999754;28;20274;-89
2024/01/09 09:59:46;;;;;;;75.90;39.53;;;-2.30;39.10;;;;;;4995832;28;20657;-89
2024/01/09 10:02:20;;;;;;;80.13;40.17;;;-2.30;39.00;;;;;;5021043;28;20210;-90
2024/01/09 10:04:48;;;;;;;73.70;39.80;;;-2.20;39.00;;;;;;5006762;28;20321;-89
2024/01/09 10:07:19;;;;;;;78.10;39.03;;;-2.20;38.70;;;;;;4998965;28;20535;-89
2024/01/09 10:09:49;;;;;;;73.40;37.67;;;-2.10;38.90;;;;;;4998602;28;20190;-88
2024/01/09 10:12:15;;;;;;;73.43;36.77;;;-2.10;38.90;;;;;;4988772;28;20294;-89
2024/01/09 10:15:20;;;;;;;72.57;38.87;;;-2.00;38.90;;;;;;4998591;28;20183;-89
2024/01/09 10:17:46;;;;;;;72.37;35.90;;;-2.00;39.00;;;;;;4995085;28;20215;-89
2024/01/09 10:20:15;;;;;;;77.50;36.60;;;-1.80;39.20;;;;;;5000336;28;20223;-89
2024/01/09 10:22:41;;;;;;;72.63;36.10;;;-1.80;39.10;;;;;;5008407;28;20248;-89
2024/01/09 10:25:10;;;;;;;75.97;37.30;;;-1.70;39.00;;;;;;4995347;28;20679;-88
2024/01/09 10:27:37;;;;;;;71.57;37.27;;;-1.80;38.70;;;;;;5005322;28;20187;-88
2024/01/09 10:30:09;;;;;;;71.83;36.63;;;-1.70;39.00;;;;;;4989575;28;20187;-88
2024/01/09 10:32:36;;;;;;;72.20;36.83;;;-1.60;38.90;;;;;;5000000;28;20193;-88
2024/01/09 10:35:03;;;;;;;63.90;34.93;;;-1.60;38.90;;;;;;4998001;28;20195;-88
2024/01/09 10:37:33;;;;;;;63.80;34.07;;;-1.60;38.70;;;;;;4996192;28;20179;-87
2024/01/09 10:39:59;;;;;;;69.67;37.73;;;-1.50;38.80;;;;;;4984711;28;20200;-88
2024/01/09 10:42:27;;;;;;;69.63;37.20;;;-1.50;38.80;;;;;;4994096;28;20190;-88
2024/01/09 10:44:52;;;;;;;63.50;35.03;;;-1.40;38.90;;;;;;4996434;28;20296;-88
2024/01/09 10:47:20;;;;;;;69.53;34.47;;;-1.30;38.90;;;;;;5015270;28;20744;-89
2024/01/09 10:49:46;;;;;;;68.43;36.40;;;-1.30;38.80;;;;;;4999791;28;20184;-88
2024/01/09 10:52:16;;;;;;;64.80;34.87;;;-1.30;38.70;;;;;;4999642;28;20190;-88
2024/01/09 10:54:45;;;;;;;64.93;33.37;;;-1.20;38.80;;;;;;4994451;28;20222;-88
2024/01/09 10:57:13;;;;;;;56.57;30.20;;;-1.10;38.70;;;;;;4995180;28;20274;-87
2024/01/09 10:59:40;;;;;;;66.17;33.63;;;-1.10;38.60;;;;;;4978683;28;20191;-87
2024/01/09 11:02:16;;;;;;;62.20;32.57;;;-1.00;38.30;;;;;;4987081;28;20643;-89
2024/01/09 11:04:43;;;;;;;67.83;33.63;;;-1.10;38.20;;;;;;4996956;28;20210;-88
2024/01/09 11:07:15;;;;;;;60.37;31.07;;;-1.00;38.10;;;;;;4997503;28;20175;-88
2024/01/09 11:09:46;;;;;;;62.87;33.13;;;-1.10;37.70;;;;;;4997580;28;20184;-89
2024/01/09 11:12:19;;;;;;;63.67;34.63;;;-1.10;37.80;;;;;;5015048;28;20194;-88
2024/01/09 11:14:49;;;;;;;67.37;33.83;;;-1.00;37.90;;;;;;4988934;28;20191;-89
2024/01/09 11:17:17;;;;;;;62.40;34.20;;;-0.90;38.00;;;;;;4993924;28;20207;-89
2024/01/09 11:19:43;;;;;;;62.57;33.33;;;-0.90;37.70;;;;;;4997337;28;20183;-88
2024/01/09 11:22:17;;;;;;;59.97;31.73;;;-0.90;37.50;;;;;;5022188;28;20178;-87
2024/01/09 11:24:50;;;;;;;57.73;32.00;;;-0.90;37.50;;;;;;5001004;28;20547;-89
2024/01/09 11:27:18;;;;;;;53.23;30.10;;;-0.90;37.60;;;;;;4994359;28;20596;-88
2024/01/09 11:29:52;;;;;;;58.20;31.90;;;-0.70;38.00;;;;;;5004053;28;20245;-88
2024/01/09 11:32:19;;;;;;;62.00;32.33;;;-0.70;38.00;;;;;;4996852;28;20183;-88
2024/01/09 11:34:48;;;;;;;48.13;25.87;;;-0.70;37.90;;;;;;4996799;28;20191;-88
2024/01/09 11:37:17;;;;;;;53.20;26.43;;;-0.60;37.90;;;;;;5014647;28;20186;-88
2024/01/09 11:39:44;;;;;;;57.00;28.30;;;-0.50;37.50;;;;;;4994069;28;20686;-88
2024/01/09 11:42:11;;;;;;;53.40;27.43;;;-0.60;37.00;;;;;;5013145;28;20602;-88
2024/01/09 11:44:36;;;;;;;54.87;29.90;;;-0.60;37.10;;;;;;5000279;28;20274;-88
2024/01/09 11:47:02;;;;;;;51.20;27.43;;;-0.50;37.20;;;;;;5006979;28;20207;-88
2024/01/09 11:49:28;;;;;;;50.73;26.83;;;-0.40;37.30;;;;;;4990042;28;20637;-88
2024/01/09 11:51:58;;;;;;;56.53;28.53;;;-0.40;37.30;;;;;;5012678;28;20198;-87
2024/01/09 11:54:23;;;;;;;52.10;27.57;;;-0.30;37.00;;;;;;4994760;28;20214;-88
2024/01/09 11:56:50;;;;;;;57.77;29.17;;;-0.40;36.70;;;;;;4994840;28;20572;-87
2024/01/09 11:59:19;;;;;;;52.93;28.57;;;-0.30;36.80;;;;;;5001458;28;20214;-87
2024/01/09 12:01:47;;;;;;;51.73;27.77;;;-0.30;37.10;;;;;;4996632;28;20647;-87
2024/01/09 12:04:14;;;;;;;57.93;29.40;;;-0.10;37.20;;;;;;5004038;28;20215;-87
2024/01/09 12:06:39;;;;;;;49.57;25.80;;;-0.10;37.20;;;;;;5023372;28;20183;-88
2024/01/09 12:09:05;;;;;;;46.97;26.67;;;-0.10;37.10;;;;;;5011183;28;20179;-87
2024/01/09 12:11:31;;;;;;;51.83;28.10;;;-0.10;36.90;;;;;;5006753;28;20554;-87
2024/01/09 12:14:01;;;;;;;43.17;23.87;;;0.00;36.80;;;;;;4994929;28;20190;-88
2024/01/09 12:16:31;;;;;;;46.80;24.33;;;0.00;36.70;;;;;;5017947;28;20190;-87
2024/01/09 12:18:58;;;;;;;41.80;23.27;;;-0.10;36.10;;;;;;5011387;28;20916;-87